Terminal Aerodrome Forecast
Issued by NWS

Home | Current Version | Previous Version | Text Only | Print | Product List | Glossary On
Versions: 1 2 3 4 5 6 7 8 9 10 11 12 13 14 15 16 17 18 19 20 21 22 23 24
000
FTAK31 PANC 012342
TAFATK
TAF
PATK 012342Z 0200/0224 VRB03KT P6SM BKN040 OVC080
     FM020600 18005KT P6SM -SHRA BKN030 OVC060
     FM021600 22004KT P6SM -RA BKN025 OVC050=

USA.gov is the U.S. government's official web portal to all federal, state and local government web resources and services.